Time;durP1;ratioP1;P1;durP2;ratioP2;P2;SDS_P1;SDS_P2;PMS_P1;PMS_P2;Temp;Humidity;BMP_temperature;BMP_pressure;BME280_temperature;BME280_humidity;BME280_pressure;Samples;Min_cycle;Max_cycle;Signal;HPM_P1;HPM_P2
2021/07/28 00:00:23;;;;;;;10.27;6.78;;;21.00;85.90;;;;;;5046404;28;20074;-68
2021/07/28 00:02:48;;;;;;;11.25;7.32;;;20.90;86.10;;;;;;5046571;28;20228;-68
2021/07/28 00:05:14;;;;;;;10.50;7.28;;;20.90;86.90;;;;;;5046513;28;20041;-67
2021/07/28 00:07:39;;;;;;;8.65;6.00;;;20.90;86.40;;;;;;5044965;28;20096;-67
2021/07/28 00:10:05;;;;;;;10.30;6.47;;;20.90;86.50;;;;;;5046132;28;20071;-68
2021/07/28 00:12:31;;;;;;;9.52;6.40;;;20.90;86.30;;;;;;5045854;28;20025;-68
2021/07/28 00:14:56;;;;;;;8.00;6.38;;;20.90;86.40;;;;;;5045900;28;20085;-68
2021/07/28 00:17:22;;;;;;;10.65;6.45;;;20.90;86.40;;;;;;5046402;28;20075;-68
2021/07/28 00:20:02;;;;;;;11.32;7.03;;;20.90;86.40;;;;;;5046133;28;20083;-68
2021/07/28 00:25:12;;;;;;;10.15;6.82;;;20.90;86.40;;;;;;5046048;28;20045;-68
2021/07/28 00:27:37;;;;;;;9.35;7.10;;;20.90;86.30;;;;;;5045832;28;20037;-68
2021/07/28 00:30:10;;;;;;;8.88;6.55;;;21.00;86.70;;;;;;5044793;28;20064;-68
2021/07/28 00:32:35;;;;;;;7.80;6.25;;;21.00;86.30;;;;;;5028646;28;20030;-68
2021/07/28 00:35:01;;;;;;;12.57;7.25;;;20.90;86.10;;;;;;5045468;28;20044;-68
2021/07/28 00:37:26;;;;;;;8.98;6.57;;;21.00;86.70;;;;;;5028134;28;20337;-68
2021/07/28 00:39:52;;;;;;;9.40;7.18;;;21.00;86.60;;;;;;5045864;28;20224;-68
2021/07/28 00:42:17;;;;;;;11.18;6.80;;;21.00;86.50;;;;;;5045823;28;20034;-69
2021/07/28 00:44:44;;;;;;;14.57;7.70;;;21.00;87.00;;;;;;5045357;28;20354;-68
2021/07/28 00:47:11;;;;;;;13.75;7.88;;;20.80;86.90;;;;;;5045689;28;20044;-68
2021/07/28 00:49:36;;;;;;;14.85;7.40;;;20.70;87.20;;;;;;5044274;28;20116;-68
2021/07/28 00:52:02;;;;;;;13.70;8.30;;;20.80;87.20;;;;;;5044091;28;20033;-69
2021/07/28 00:54:29;;;;;;;12.20;7.30;;;20.70;87.30;;;;;;5044287;28;20022;-67
2021/07/28 00:56:55;;;;;;;10.18;6.88;;;20.70;87.10;;;;;;5045903;28;20025;-68
2021/07/28 00:59:21;;;;;;;9.90;6.53;;;20.80;87.60;;;;;;5045552;28;20029;-68
2021/07/28 01:01:47;;;;;;;11.85;6.40;;;20.80;87.60;;;;;;5027488;28;20037;-68
2021/07/28 01:04:12;;;;;;;10.27;6.97;;;20.80;87.00;;;;;;5027450;28;20389;-68
2021/07/28 01:06:38;;;;;;;10.65;6.55;;;20.60;87.20;;;;;;5044965;28;20025;-69
2021/07/28 01:09:03;;;;;;;5.65;4.45;;;20.40;87.40;;;;;;5045363;28;20344;-68
2021/07/28 01:11:29;;;;;;;6.82;4.07;;;20.40;85.00;;;;;;5044196;28;20040;-68
2021/07/28 01:13:57;;;;;;;7.25;4.13;;;20.30;85.20;;;;;;5045300;28;20089;-68
2021/07/28 01:16:24;;;;;;;7.10;3.92;;;20.30;84.90;;;;;;5044980;28;20340;-68
2021/07/28 01:18:50;;;;;;;8.95;4.20;;;20.20;84.40;;;;;;5043651;28;20079;-68
2021/07/28 01:21:16;;;;;;;6.50;3.97;;;19.60;85.30;;;;;;5045418;28;20317;-68
2021/07/28 01:23:42;;;;;;;5.18;3.65;;;19.50;86.40;;;;;;5043617;28;20076;-68
2021/07/28 01:26:07;;;;;;;5.32;3.90;;;19.60;85.20;;;;;;5045074;28;20089;-68
2021/07/28 01:28:34;;;;;;;5.13;3.95;;;19.70;85.10;;;;;;5043643;28;20266;-68
2021/07/28 01:31:03;;;;;;;6.65;4.20;;;19.70;85.60;;;;;;5043720;28;20033;-68
2021/07/28 01:33:30;;;;;;;9.55;4.20;;;19.80;85.40;;;;;;5044464;28;20040;-67
2021/07/28 01:35:58;;;;;;;7.50;4.45;;;19.80;85.00;;;;;;5044174;28;20313;-69
2021/07/28 01:38:27;;;;;;;5.53;4.40;;;19.90;85.90;;;;;;5043803;28;20042;-68
2021/07/28 01:40:56;;;;;;;5.70;4.40;;;19.90;85.60;;;;;;5044756;28;20067;-68
2021/07/28 01:43:22;;;;;;;8.88;4.45;;;19.90;85.50;;;;;;5043523;28;20029;-68
2021/07/28 01:45:48;;;;;;;5.40;4.22;;;19.90;85.50;;;;;;5043353;28;20041;-69
2021/07/28 01:48:13;;;;;;;5.78;4.40;;;19.90;85.80;;;;;;5043835;28;20025;-68
2021/07/28 01:50:39;;;;;;;5.70;4.10;;;19.90;85.80;;;;;;5044645;28;20037;-68
2021/07/28 01:53:04;;;;;;;5.80;4.32;;;19.90;85.50;;;;;;5044078;28;20229;-68
2021/07/28 01:55:30;;;;;;;8.43;4.50;;;19.90;85.60;;;;;;5042996;28;20033;-68
2021/07/28 01:57:56;;;;;;;6.55;4.40;;;19.90;85.70;;;;;;5044023;28;20040;-69
2021/07/28 02:00:22;;;;;;;6.40;4.22;;;19.90;85.80;;;;;;5042900;28;20032;-69
2021/07/28 02:02:48;;;;;;;8.20;4.43;;;19.90;85.90;;;;;;5044400;28;20025;-69
2021/07/28 02:05:13;;;;;;;8.77;5.13;;;19.80;86.10;;;;;;5010435;28;20037;-69
2021/07/28 02:07:39;;;;;;;8.40;5.00;;;19.80;85.90;;;;;;5043811;28;20201;-70
2021/07/28 02:10:05;;;;;;;5.80;4.35;;;19.80;86.10;;;;;;5043986;28;20041;-69
2021/07/28 02:12:30;;;;;;;8.75;4.68;;;19.80;86.20;;;;;;5044047;28;20033;-69
2021/07/28 02:14:56;;;;;;;6.50;4.50;;;19.80;86.10;;;;;;5026676;28;20092;-68
2021/07/28 02:17:21;;;;;;;6.95;4.22;;;19.70;86.00;;;;;;5044216;28;20048;-68
2021/07/28 02:19:47;;;;;;;6.47;4.10;;;19.60;86.00;;;;;;5042874;28;20038;-69
2021/07/28 02:22:12;;;;;;;5.47;4.30;;;19.70;85.70;;;;;;5043745;28;20079;-68
2021/07/28 02:24:39;;;;;;;9.05;4.93;;;19.70;85.70;;;;;;5043493;28;20222;-68
2021/07/28 02:27:05;;;;;;;6.63;4.95;;;19.70;85.60;;;;;;5042994;28;20040;-68
2021/07/28 02:29:31;;;;;;;6.95;4.40;;;19.60;86.00;;;;;;5043021;28;20091;-68
2021/07/28 02:31:57;;;;;;;6.55;4.38;;;19.50;86.30;;;;;;5043893;28;20033;-67
2021/07/28 02:34:23;;;;;;;7.88;4.55;;;19.50;86.10;;;;;;5042840;28;20051;-69
2021/07/28 02:36:48;;;;;;;6.35;4.78;;;19.50;86.70;;;;;;5042452;28;20033;-69
2021/07/28 02:39:14;;;;;;;7.03;4.43;;;19.10;87.60;;;;;;5044540;28;20064;-70
2021/07/28 02:41:39;;;;;;;7.40;4.55;;;19.00;87.50;;;;;;5043533;28;20096;-70
2021/07/28 02:44:05;;;;;;;7.10;4.82;;;19.00;87.80;;;;;;5043854;28;20100;-68
2021/07/28 02:46:31;;;;;;;6.88;3.78;;;18.80;88.50;;;;;;5042481;28;20046;-68
2021/07/28 02:48:56;;;;;;;8.18;3.80;;;18.80;88.10;;;;;;5043481;28;20049;-67
2021/07/28 02:51:22;;;;;;;5.20;3.58;;;19.00;87.90;;;;;;5043383;28;20037;-69
2021/07/28 02:53:47;;;;;;;6.80;3.60;;;19.20;87.60;;;;;;5044985;28;20041;-68
2021/07/28 02:56:13;;;;;;;5.90;3.55;;;19.30;86.70;;;;;;5047869;28;20038;-68
2021/07/28 02:58:38;;;;;;;5.15;3.40;;;19.20;86.50;;;;;;5046356;28;20359;-68
2021/07/28 03:01:04;;;;;;;6.70;3.55;;;19.30;86.70;;;;;;5047336;28;20032;-69
2021/07/28 03:03:30;;;;;;;6.43;4.15;;;19.40;86.70;;;;;;5047271;28;20084;-69
2021/07/28 03:05:55;;;;;;;8.43;4.60;;;19.40;86.80;;;;;;5047170;28;20057;-68
2021/07/28 03:08:22;;;;;;;5.78;4.10;;;19.30;87.20;;;;;;5047638;28;20033;-68
2021/07/28 03:10:47;;;;;;;5.28;3.95;;;19.30;87.40;;;;;;5047166;28;20049;-68
2021/07/28 03:13:13;;;;;;;7.60;4.88;;;19.30;87.30;;;;;;5047247;28;20032;-68
2021/07/28 03:15:38;;;;;;;7.55;4.60;;;19.40;87.20;;;;;;5047114;28;20325;-68
2021/07/28 03:18:04;;;;;;;7.97;4.40;;;19.40;87.30;;;;;;5046453;28;20084;-68
2021/07/28 03:20:29;;;;;;;6.35;4.25;;;19.40;87.40;;;;;;5047468;28;20348;-68
2021/07/28 03:22:55;;;;;;;9.23;4.65;;;19.40;86.80;;;;;;5046706;28;20048;-69
2021/07/28 03:25:20;;;;;;;5.88;3.75;;;19.40;86.90;;;;;;5047278;28;20034;-68
2021/07/28 03:27:46;;;;;;;6.20;3.92;;;19.30;86.30;;;;;;5046782;28;20281;-68
2021/07/28 03:30:12;;;;;;;8.00;4.10;;;19.30;86.10;;;;;;5047304;28;20033;-68
2021/07/28 03:32:37;;;;;;;7.30;4.13;;;19.40;87.00;;;;;;5047308;28;20049;-68
2021/07/28 03:35:03;;;;;;;7.10;3.80;;;19.50;87.10;;;;;;5046690;28;20048;-68
2021/07/28 03:37:29;;;;;;;6.15;3.75;;;19.40;86.70;;;;;;5045511;28;20053;-68
2021/07/28 03:40:02;;;;;;;6.13;3.63;;;19.40;86.90;;;;;;5046805;28;20124;-68
2021/07/28 03:42:31;;;;;;;5.93;3.50;;;19.30;86.30;;;;;;5030034;28;20026;-69
2021/07/28 03:44:57;;;;;;;7.38;3.72;;;19.30;86.20;;;;;;5030134;28;20204;-68
2021/07/28 03:47:23;;;;;;;5.90;3.60;;;19.30;86.20;;;;;;5046928;28;20086;-67
2021/07/28 03:49:49;;;;;;;5.82;3.90;;;19.30;86.40;;;;;;5046489;28;20268;-67
2021/07/28 03:52:14;;;;;;;6.50;3.83;;;19.30;86.50;;;;;;5045398;28;20033;-67
2021/07/28 03:54:40;;;;;;;6.35;4.13;;;19.30;86.60;;;;;;5046369;28;20329;-67
2021/07/28 03:57:05;;;;;;;8.25;3.92;;;19.30;86.20;;;;;;5047114;28;20084;-68
2021/07/28 03:59:31;;;;;;;7.90;4.50;;;19.30;86.60;;;;;;5045456;28;20033;-66
2021/07/28 04:01:56;;;;;;;6.45;4.20;;;19.20;86.20;;;;;;5046238;28;20056;-67
2021/07/28 04:04:22;;;;;;;7.47;4.88;;;19.10;87.40;;;;;;5046340;28;20026;-67
2021/07/28 04:06:47;;;;;;;10.50;4.95;;;18.70;88.60;;;;;;5045250;28;20032;-67
2021/07/28 04:09:13;;;;;;;8.73;5.15;;;18.80;88.90;;;;;;5046732;28;20033;-68
2021/07/28 04:11:38;;;;;;;10.85;5.13;;;18.90;88.00;;;;;;5046654;28;20033;-68
2021/07/28 04:14:04;;;;;;;7.28;4.85;;;18.80;88.70;;;;;;5044985;28;20252;-67
2021/07/28 04:16:29;;;;;;;9.30;5.03;;;18.60;89.00;;;;;;5044953;28;20341;-67
2021/07/28 04:18:55;;;;;;;7.10;5.10;;;18.70;89.20;;;;;;5044856;28;20032;-68
2021/07/28 04:21:20;;;;;;;6.38;4.55;;;18.80;88.80;;;;;;5046438;28;20040;-68
2021/07/28 04:23:46;;;;;;;7.25;4.95;;;18.80;88.50;;;;;;5046189;28;20052;-67
2021/07/28 04:26:11;;;;;;;12.07;5.70;;;18.80;89.00;;;;;;5046122;28;20053;-67
2021/07/28 04:28:37;;;;;;;7.80;5.38;;;18.80;89.20;;;;;;5045901;28;20249;-67
2021/07/28 04:31:02;;;;;;;8.40;5.30;;;18.80;89.20;;;;;;5044892;28;20032;-67
2021/07/28 04:33:28;;;;;;;12.52;5.30;;;18.90;88.90;;;;;;5045573;28;20033;-67
2021/07/28 04:35:53;;;;;;;7.65;5.13;;;19.10;88.20;;;;;;5046366;28;20037;-66
2021/07/28 04:38:19;;;;;;;6.60;5.28;;;19.10;88.00;;;;;;5045949;28;20030;-67
2021/07/28 04:40:44;;;;;;;8.63;5.20;;;19.20;88.10;;;;;;5045587;28;20076;-67
2021/07/28 04:43:10;;;;;;;9.40;5.10;;;19.30;87.90;;;;;;5045480;28;20022;-68
2021/07/28 04:45:36;;;;;;;11.20;4.90;;;19.30;87.70;;;;;;5044578;28;20086;-67
2021/07/28 04:48:03;;;;;;;11.10;5.50;;;19.30;87.70;;;;;;5046025;28;20033;-71
2021/07/28 04:50:28;;;;;;;7.80;5.28;;;19.30;87.60;;;;;;5044660;28;20053;-65
2021/07/28 04:52:54;;;;;;;8.35;5.40;;;19.40;87.90;;;;;;5045189;28;20332;-69
2021/07/28 04:55:19;;;;;;;8.70;5.75;;;19.40;87.80;;;;;;5044103;28;20025;-68
2021/07/28 04:57:45;;;;;;;9.13;5.50;;;19.50;87.70;;;;;;5045256;28;20093;-69
2021/07/28 05:00:11;;;;;;;11.23;6.13;;;19.50;87.90;;;;;;5045902;28;20029;-71
2021/07/28 05:02:36;;;;;;;12.52;6.57;;;19.50;87.90;;;;;;5045558;28;20040;-66
2021/07/28 05:05:03;;;;;;;9.75;6.38;;;19.50;88.10;;;;;;5044955;28;20033;-68
2021/07/28 05:07:29;;;;;;;11.52;6.63;;;19.50;88.10;;;;;;5044886;28;20055;-70
2021/07/28 05:09:55;;;;;;;10.07;5.95;;;19.50;88.20;;;;;;5045178;28;20333;-65
2021/07/28 05:12:20;;;;;;;10.23;6.60;;;19.50;88.20;;;;;;5044470;28;20267;-65
2021/07/28 05:14:46;;;;;;;9.13;6.50;;;19.50;88.20;;;;;;5045460;28;20081;-65
2021/07/28 05:17:11;;;;;;;11.13;7.10;;;19.50;88.10;;;;;;5045065;28;20068;-65
2021/07/28 05:19:37;;;;;;;11.85;6.95;;;19.50;88.20;;;;;;5044918;28;20037;-65
2021/07/28 05:22:02;;;;;;;11.10;6.63;;;19.60;88.20;;;;;;5044707;28;20209;-66
2021/07/28 05:24:29;;;;;;;10.10;6.07;;;19.60;88.10;;;;;;5044396;28;20300;-65
2021/07/28 05:26:54;;;;;;;11.73;6.38;;;19.60;88.20;;;;;;5045371;28;20033;-64
2021/07/28 05:29:20;;;;;;;9.45;6.50;;;19.60;88.20;;;;;;5045097;28;20045;-69
2021/07/28 05:31:46;;;;;;;10.07;6.55;;;19.60;88.10;;;;;;5043911;28;20052;-68
2021/07/28 05:34:11;;;;;;;11.35;5.88;;;19.60;87.90;;;;;;5044397;28;20037;-69
2021/07/28 05:36:37;;;;;;;8.35;6.00;;;19.60;88.10;;;;;;5044611;28;20331;-69
2021/07/28 05:39:02;;;;;;;8.77;6.03;;;19.70;87.90;;;;;;5044834;28;20025;-70
2021/07/28 05:41:28;;;;;;;10.23;5.93;;;19.70;88.10;;;;;;5044536;28;20034;-68
2021/07/28 05:43:53;;;;;;;9.18;5.97;;;19.70;87.70;;;;;;5044668;28;20036;-68
2021/07/28 05:46:19;;;;;;;10.38;6.53;;;19.70;87.60;;;;;;5044303;28;20099;-68
2021/07/28 05:48:44;;;;;;;11.73;6.55;;;19.70;87.80;;;;;;5044284;28;20033;-69
2021/07/28 05:51:10;;;;;;;7.65;5.20;;;19.70;87.90;;;;;;5044526;28;20088;-68
2021/07/28 05:53:37;;;;;;;10.00;5.40;;;19.60;87.50;;;;;;5027065;28;20075;-69
2021/07/28 05:56:03;;;;;;;7.28;5.10;;;19.60;87.70;;;;;;5044476;28;20033;-69
2021/07/28 05:58:28;;;;;;;8.70;5.03;;;19.70;88.00;;;;;;5044035;28;20044;-68
2021/07/28 06:00:54;;;;;;;6.88;4.63;;;19.70;87.20;;;;;;5042813;28;20033;-69
2021/07/28 06:03:19;;;;;;;7.63;4.72;;;19.80;86.70;;;;;;5042684;28;20036;-69
2021/07/28 06:05:45;;;;;;;7.68;5.32;;;19.80;86.80;;;;;;5044370;28;20028;-68
2021/07/28 06:08:10;;;;;;;7.43;4.80;;;19.80;87.00;;;;;;5043249;28;20029;-68
2021/07/28 06:10:36;;;;;;;9.10;5.82;;;19.80;87.40;;;;;;5026256;28;20032;-69
2021/07/28 06:13:01;;;;;;;8.20;5.22;;;19.80;87.50;;;;;;5043683;28;20033;-69
2021/07/28 06:15:27;;;;;;;10.70;5.78;;;19.80;87.90;;;;;;5044247;28;20081;-68
2021/07/28 06:17:52;;;;;;;7.38;5.30;;;19.80;88.00;;;;;;5044373;28;20225;-69
2021/07/28 06:20:19;;;;;;;8.88;5.60;;;19.80;88.00;;;;;;5043691;28;20030;-70
2021/07/28 06:22:45;;;;;;;7.78;5.28;;;19.80;88.00;;;;;;5042477;28;20081;-70
2021/07/28 06:25:11;;;;;;;8.15;6.10;;;19.90;88.30;;;;;;5043296;28;20045;-69
2021/07/28 06:27:36;;;;;;;9.75;5.72;;;19.80;87.50;;;;;;5043360;28;20064;-69
2021/07/28 06:30:03;;;;;;;9.23;6.47;;;19.80;87.90;;;;;;5043885;28;20030;-69
2021/07/28 06:32:28;;;;;;;10.15;6.20;;;19.80;89.00;;;;;;5043962;28;20037;-69
2021/07/28 06:34:54;;;;;;;10.07;6.03;;;19.80;88.50;;;;;;5043828;28;20106;-69
2021/07/28 06:37:19;;;;;;;9.23;5.80;;;19.80;88.50;;;;;;5043497;28;20087;-69
2021/07/28 06:39:45;;;;;;;8.98;6.18;;;20.00;88.20;;;;;;5043462;28;20201;-68
2021/07/28 06:42:10;;;;;;;11.38;6.43;;;20.00;88.30;;;;;;5043971;28;20080;-68
2021/07/28 06:44:36;;;;;;;9.07;5.85;;;20.10;88.20;;;;;;5043935;28;20037;-68
2021/07/28 06:47:02;;;;;;;11.82;6.55;;;20.10;87.80;;;;;;5043577;28;20355;-69
2021/07/28 06:49:27;;;;;;;12.48;5.90;;;20.00;87.30;;;;;;5043595;28;20358;-68
2021/07/28 06:51:53;;;;;;;10.13;5.65;;;20.10;87.90;;;;;;5043598;28;20026;-68
2021/07/28 06:54:18;;;;;;;9.88;5.43;;;20.30;87.70;;;;;;5044147;28;20025;-71
2021/07/28 06:56:44;;;;;;;9.07;5.57;;;20.30;87.20;;;;;;5043227;28;20079;-68
2021/07/28 06:59:09;;;;;;;9.32;6.07;;;20.40;87.20;;;;;;5043239;28;20045;-70
2021/07/28 07:01:35;;;;;;;9.18;6.15;;;20.30;87.70;;;;;;5042407;28;20037;-68
2021/07/28 07:04:00;;;;;;;7.63;6.10;;;20.40;88.10;;;;;;5043389;28;20030;-69
2021/07/28 07:06:26;;;;;;;10.63;6.40;;;20.40;88.10;;;;;;5043230;28;20022;-69
2021/07/28 07:08:51;;;;;;;13.40;6.90;;;20.40;88.00;;;;;;5043943;28;20057;-68
2021/07/28 07:11:17;;;;;;;9.02;6.32;;;20.50;88.10;;;;;;5043810;28;20285;-69
2021/07/28 07:13:42;;;;;;;9.73;6.72;;;20.60;87.60;;;;;;5043565;28;20036;-68
2021/07/28 07:16:08;;;;;;;11.65;6.68;;;20.60;87.50;;;;;;5043347;28;20030;-68
2021/07/28 07:18:34;;;;;;;8.50;5.78;;;20.60;87.60;;;;;;5043094;28;20321;-68
2021/07/28 07:20:59;;;;;;;11.88;6.60;;;20.60;87.80;;;;;;5043613;28;20109;-68
2021/07/28 07:23:25;;;;;;;11.63;6.50;;;20.60;87.70;;;;;;5043177;28;20280;-68
2021/07/28 07:25:50;;;;;;;11.50;6.72;;;20.60;88.00;;;;;;5043304;28;20324;-68
2021/07/28 07:28:16;;;;;;;8.93;6.40;;;20.60;87.70;;;;;;5043371;28;20209;-68
2021/07/28 07:30:41;;;;;;;12.98;6.40;;;20.60;87.60;;;;;;5025711;28;20033;-69
2021/07/28 07:35:51;;;;;;;8.52;5.50;;;20.70;87.60;;;;;;5043611;28;20283;-69
2021/07/28 07:38:16;;;;;;;8.27;5.80;;;20.70;87.50;;;;;;5043336;28;20029;-69
2021/07/28 07:40:43;;;;;;;10.25;5.90;;;20.70;87.30;;;;;;5045641;28;20080;-69
2021/07/28 07:43:08;;;;;;;9.10;5.53;;;20.70;87.60;;;;;;5046487;28;20087;-70
2021/07/28 07:45:36;;;;;;;10.32;6.13;;;20.80;87.30;;;;;;5045624;28;20077;-72
2021/07/28 07:48:02;;;;;;;9.32;6.10;;;20.80;87.20;;;;;;5045669;28;20029;-70
2021/07/28 07:50:31;;;;;;;10.40;6.63;;;20.80;86.80;;;;;;5045757;28;20045;-70
2021/07/28 07:52:59;;;;;;;10.40;6.10;;;20.80;86.80;;;;;;5045118;28;20056;-70
2021/07/28 07:55:25;;;;;;;9.85;6.18;;;20.80;86.80;;;;;;5045150;28;20033;-70
2021/07/28 07:57:50;;;;;;;10.13;6.13;;;20.80;86.80;;;;;;5046269;28;20084;-70
2021/07/28 08:00:16;;;;;;;10.90;6.28;;;20.90;87.00;;;;;;5046718;28;20348;-69
2021/07/28 08:02:42;;;;;;;13.23;6.35;;;20.90;86.90;;;;;;5046123;28;20033;-70
2021/07/28 08:05:08;;;;;;;9.45;6.55;;;20.90;86.90;;;;;;5046141;28;20056;-69
2021/07/28 08:07:33;;;;;;;9.30;6.18;;;20.90;86.80;;;;;;5045900;28;20042;-69
2021/07/28 08:09:59;;;;;;;11.68;6.85;;;20.90;86.50;;;;;;5046072;28;20055;-70
2021/07/28 08:12:24;;;;;;;11.13;6.45;;;20.80;86.50;;;;;;5045996;28;20053;-71
2021/07/28 08:14:50;;;;;;;13.48;6.88;;;20.80;86.40;;;;;;5046452;28;20080;-70
2021/07/28 08:17:16;;;;;;;9.32;5.85;;;20.90;86.40;;;;;;5046286;28;20038;-69
2021/07/28 08:19:41;;;;;;;9.57;6.07;;;20.90;85.90;;;;;;5045915;28;20041;-71
2021/07/28 08:22:07;;;;;;;12.43;6.20;;;20.90;86.40;;;;;;5046146;28;20029;-68
2021/07/28 08:24:32;;;;;;;10.27;6.93;;;20.90;86.20;;;;;;5045572;28;20214;-69
2021/07/28 08:26:57;;;;;;;15.40;6.63;;;20.90;85.90;;;;;;5046539;28;20034;-69
2021/07/28 08:29:23;;;;;;;9.27;6.55;;;20.80;85.60;;;;;;5046141;28;20042;-69
2021/07/28 08:31:48;;;;;;;10.05;6.53;;;20.80;85.80;;;;;;5045800;28;20364;-68
2021/07/28 08:34:14;;;;;;;10.02;6.45;;;20.80;85.60;;;;;;5045609;28;20037;-69
2021/07/28 08:36:39;;;;;;;11.77;6.65;;;20.80;85.70;;;;;;5045552;28;20041;-70
2021/07/28 08:39:05;;;;;;;9.90;6.68;;;20.80;84.90;;;;;;5046565;28;20076;-68
2021/07/28 08:41:30;;;;;;;11.43;6.93;;;20.80;85.40;;;;;;5045931;28;20040;-69
2021/07/28 08:43:57;;;;;;;13.77;8.20;;;20.80;85.20;;;;;;5044344;28;20040;-69
2021/07/28 08:46:26;;;;;;;13.85;7.70;;;20.80;85.70;;;;;;5027945;28;20052;-68
2021/07/28 08:48:52;;;;;;;11.30;7.55;;;20.80;85.60;;;;;;5045140;28;20383;-68
2021/07/28 08:51:18;;;;;;;14.73;8.07;;;20.70;85.40;;;;;;5044183;28;20040;-68
2021/07/28 08:53:43;;;;;;;11.55;7.32;;;20.70;85.10;;;;;;5045127;28;20359;-68
2021/07/28 08:56:08;;;;;;;15.20;7.88;;;20.70;85.30;;;;;;5045623;28;20083;-68
2021/07/28 08:58:34;;;;;;;10.25;7.57;;;20.60;85.20;;;;;;5044065;28;20221;-68
2021/07/28 09:00:59;;;;;;;12.88;7.90;;;20.50;85.20;;;;;;5045249;28;20340;-69
2021/07/28 09:03:25;;;;;;;14.57;8.52;;;20.50;85.00;;;;;;5045264;28;20037;-68
2021/07/28 09:05:52;;;;;;;14.63;8.43;;;20.50;84.60;;;;;;5044660;28;20029;-68
2021/07/28 09:08:28;;;;;;;12.50;8.50;;;20.40;84.60;;;;;;5045212;28;20213;-68
2021/07/28 09:10:58;;;;;;;13.48;8.75;;;20.40;85.00;;;;;;5045075;28;20037;-68
2021/07/28 09:13:27;;;;;;;14.57;9.63;;;20.40;85.30;;;;;;5045028;28;20025;-68
2021/07/28 09:16:00;;;;;;;12.35;8.77;;;20.40;85.60;;;;;;5044914;28;20045;-69
2021/07/28 09:18:29;;;;;;;14.98;9.55;;;20.30;85.80;;;;;;5043990;28;20346;-68
2021/07/28 09:20:55;;;;;;;15.90;9.45;;;20.30;86.10;;;;;;5045185;28;20025;-68
2021/07/28 09:23:20;;;;;;;17.10;10.40;;;20.20;86.30;;;;;;5044725;28;20392;-69
2021/07/28 09:25:54;;;;;;;14.43;9.77;;;20.10;86.10;;;;;;5044749;28;20175;-69
2021/07/28 09:28:21;;;;;;;17.10;10.05;;;20.10;86.80;;;;;;5044754;28;20029;-73
2021/07/28 09:30:47;;;;;;;14.40;9.45;;;20.00;87.30;;;;;;5044563;28;20327;-70
2021/07/28 09:33:12;;;;;;;13.00;8.82;;;19.80;86.70;;;;;;5045317;28;20044;-70
2021/07/28 09:35:47;;;;;;;14.50;8.40;;;19.50;88.00;;;;;;5043814;28;20033;-69
2021/07/28 09:38:43;;;;;;;19.90;9.00;;;19.40;88.60;;;;;;5044728;28;20029;-72
2021/07/28 09:41:27;;;;;;;12.25;8.20;;;19.50;89.00;;;;;;5028465;28;20037;-71
2021/07/28 09:43:57;;;;;;;9.52;6.38;;;19.40;88.60;;;;;;5043773;28;20041;-69
2021/07/28 09:46:26;;;;;;;9.83;6.63;;;19.30;88.10;;;;;;5026830;28;20194;-68
2021/07/28 09:48:52;;;;;;;8.65;5.43;;;19.10;87.10;;;;;;5044301;28;20038;-68
2021/07/28 09:51:43;;;;;;;10.00;5.63;;;19.00;87.60;;;;;;5044545;28;20079;-68
2021/07/28 09:54:10;;;;;;;10.07;6.43;;;18.90;86.70;;;;;;5044815;28;20041;-69
2021/07/28 09:56:38;;;;;;;10.80;6.80;;;18.90;87.30;;;;;;5027176;28;20052;-68
2021/07/28 09:59:04;;;;;;;8.60;5.43;;;19.00;87.80;;;;;;5044540;28;20053;-68
2021/07/28 10:01:29;;;;;;;9.13;5.80;;;19.00;86.80;;;;;;5043405;28;20044;-68
2021/07/28 10:03:56;;;;;;;7.95;5.20;;;18.80;85.80;;;;;;5025814;28;20109;-68
2021/07/28 10:06:23;;;;;;;10.30;5.90;;;18.90;88.50;;;;;;5042829;28;20037;-69
2021/07/28 10:08:51;;;;;;;7.93;5.72;;;18.90;88.10;;;;;;5043193;28;20067;-68
2021/07/28 10:11:16;;;;;;;9.68;6.90;;;19.00;89.10;;;;;;5044389;28;20166;-67
2021/07/28 10:13:42;;;;;;;12.45;7.60;;;18.80;88.60;;;;;;5026521;28;20041;-68
2021/07/28 10:16:07;;;;;;;11.45;6.78;;;18.90;88.60;;;;;;5042778;28;20213;-67
2021/07/28 10:18:33;;;;;;;10.10;5.80;;;18.80;88.20;;;;;;5038774;28;20050;-65
2021/07/28 10:20:58;;;;;;;9.77;6.45;;;18.70;87.50;;;;;;5043749;28;20080;-68
2021/07/28 10:23:24;;;;;;;9.63;6.03;;;18.80;87.90;;;;;;5044061;28;20218;-67
2021/07/28 10:25:50;;;;;;;8.13;5.60;;;18.80;88.10;;;;;;5044061;28;20041;-68
2021/07/28 10:28:16;;;;;;;7.18;4.82;;;18.80;87.90;;;;;;5042743;28;20104;-66
2021/07/28 10:30:45;;;;;;;9.75;5.50;;;18.70;86.60;;;;;;5043708;28;20066;-68
2021/07/28 10:33:26;;;;;;;7.35;4.85;;;18.70;86.60;;;;;;5043623;28;20048;-68
2021/07/28 10:35:51;;;;;;;8.20;4.90;;;18.70;86.60;;;;;;5043040;28;20334;-69
2021/07/28 10:38:20;;;;;;;6.93;4.97;;;18.70;87.60;;;;;;5043030;28;20096;-72
2021/07/28 10:40:51;;;;;;;10.00;5.28;;;18.80;88.00;;;;;;5009848;28;20033;-72
2021/07/28 10:43:16;;;;;;;10.18;5.30;;;18.80;87.70;;;;;;5042407;28;20040;-72
2021/07/28 10:45:58;;;;;;;8.50;5.15;;;19.00;87.40;;;;;;5025938;28;20037;-71
2021/07/28 10:48:50;;;;;;;7.22;5.10;;;19.10;87.50;;;;;;5025979;28;20084;-72
2021/07/28 10:51:51;;;;;;;7.70;4.82;;;19.10;87.50;;;;;;5043354;28;20037;-66
2021/07/28 10:54:16;;;;;;;7.95;5.10;;;19.10;87.00;;;;;;5043624;28;20037;-72
2021/07/28 10:57:07;;;;;;;8.00;4.90;;;19.20;87.00;;;;;;5044159;28;20407;-73
2021/07/28 10:59:42;;;;;;;8.02;5.07;;;19.10;86.60;;;;;;5042991;28;20029;-70
2021/07/28 11:02:07;;;;;;;7.88;4.53;;;19.10;86.90;;;;;;5043815;28;20025;-71
2021/07/28 11:04:33;;;;;;;8.90;5.85;;;19.20;87.00;;;;;;5042153;28;20056;-69
2021/07/28 11:06:58;;;;;;;10.50;5.80;;;19.30;87.00;;;;;;5043176;28;20030;-68
2021/07/28 11:09:25;;;;;;;8.10;5.70;;;19.30;86.80;;;;;;5043144;28;20049;-70
2021/07/28 11:11:51;;;;;;;8.77;5.38;;;19.20;87.20;;;;;;5043679;28;20096;-69
2021/07/28 11:14:16;;;;;;;9.57;6.07;;;19.20;87.50;;;;;;5044042;28;20044;-70
2021/07/28 11:16:49;;;;;;;11.27;5.85;;;19.30;87.50;;;;;;5047568;28;20313;-69
2021/07/28 11:19:15;;;;;;;7.57;5.60;;;19.30;87.40;;;;;;5047410;28;20096;-68
2021/07/28 11:21:40;;;;;;;11.07;6.35;;;19.20;87.30;;;;;;5047283;28;20034;-69
2021/07/28 11:24:06;;;;;;;8.65;5.78;;;19.30;87.90;;;;;;5046675;28;20095;-70
2021/07/28 11:26:35;;;;;;;7.13;5.53;;;19.30;87.20;;;;;;5047388;28;20036;-69
2021/07/28 11:29:06;;;;;;;7.07;5.47;;;19.50;87.40;;;;;;5047113;28;20072;-69
2021/07/28 11:31:36;;;;;;;6.68;5.20;;;19.50;88.30;;;;;;5047279;28;20057;-69
2021/07/28 11:34:03;;;;;;;8.82;5.43;;;19.50;88.20;;;;;;5046035;28;20030;-69
2021/07/28 11:36:29;;;;;;;11.27;5.93;;;19.70;88.40;;;;;;5046774;28;20099;-69
2021/07/28 11:38:54;;;;;;;8.13;5.53;;;19.70;89.10;;;;;;5047230;28;20248;-69
2021/07/28 11:41:23;;;;;;;7.28;4.90;;;19.70;87.70;;;;;;5046639;28;20040;-69
2021/07/28 11:43:49;;;;;;;8.77;5.43;;;19.90;88.70;;;;;;5047004;28;20372;-69
2021/07/28 11:46:16;;;;;;;9.32;5.15;;;19.90;88.40;;;;;;5041042;28;20029;-69
2021/07/28 11:48:46;;;;;;;7.78;5.10;;;19.60;87.20;;;;;;5046717;28;20096;-69
2021/07/28 11:51:26;;;;;;;9.43;4.90;;;19.50;87.00;;;;;;5047105;28;20041;-68
2021/07/28 11:54:12;;;;;;;6.53;4.60;;;19.50;87.80;;;;;;5047248;28;20025;-69
2021/07/28 11:56:38;;;;;;;7.72;5.15;;;19.60;87.70;;;;;;5047045;28;20042;-69
2021/07/28 11:59:03;;;;;;;8.43;4.60;;;19.60;87.70;;;;;;5046739;28;20037;-69
2021/07/28 12:01:31;;;;;;;7.03;4.68;;;19.50;87.10;;;;;;5046704;28;20060;-69
2021/07/28 12:04:03;;;;;;;7.50;5.00;;;19.50;87.50;;;;;;5046307;28;20041;-70
2021/07/28 12:06:35;;;;;;;6.80;4.53;;;19.50;87.60;;;;;;5046183;28;20069;-69
2021/07/28 12:09:12;;;;;;;7.32;4.85;;;19.60;87.80;;;;;;5046543;28;20033;-70
2021/07/28 12:11:51;;;;;;;7.97;4.97;;;19.70;88.00;;;;;;5045639;28;20264;-69
2021/07/28 12:14:32;;;;;;;7.93;4.70;;;19.60;87.40;;;;;;5046580;28;20033;-69
2021/07/28 12:17:00;;;;;;;7.55;4.55;;;19.60;87.30;;;;;;5046410;28;20033;-69
2021/07/28 12:19:27;;;;;;;7.35;4.40;;;19.60;87.30;;;;;;5046315;28;20037;-69
2021/07/28 12:21:57;;;;;;;6.10;4.03;;;19.50;86.90;;;;;;5046005;28;20085;-69
2021/07/28 12:24:30;;;;;;;5.30;4.13;;;19.30;86.30;;;;;;5045660;28;20049;-69
2021/07/28 12:26:56;;;;;;;8.40;4.68;;;19.40;86.70;;;;;;5044317;28;20026;-69
2021/07/28 12:29:34;;;;;;;7.57;4.75;;;19.40;86.40;;;;;;5046210;28;20044;-70
2021/07/28 12:32:12;;;;;;;7.30;4.95;;;19.40;86.60;;;;;;5045081;28;20076;-69
2021/07/28 12:34:39;;;;;;;9.45;5.07;;;19.60;87.40;;;;;;5046218;28;20044;-69
2021/07/28 12:37:20;;;;;;;7.68;4.88;;;19.60;86.90;;;;;;5045606;28;20224;-69
2021/07/28 12:39:45;;;;;;;6.82;4.97;;;19.60;86.70;;;;;;5044725;28;20030;-70
2021/07/28 12:42:11;;;;;;;6.82;4.80;;;19.80;87.50;;;;;;5046119;28;20331;-68
2021/07/28 12:44:36;;;;;;;7.47;4.65;;;19.80;86.50;;;;;;5045948;28;20041;-70
2021/07/28 12:47:02;;;;;;;7.88;4.60;;;19.80;87.10;;;;;;5045889;28;20037;-70